Time;durP1;ratioP1;P1;durP2;ratioP2;P2;SDS_P1;SDS_P2;PMS_P1;PMS_P2;Temp;Humidity;BMP_temperature;BMP_pressure;BME280_temperature;BME280_humidity;BME280_pressure;Samples;Min_cycle;Max_cycle;Signal;HPM_P1;HPM_P2
2021/01/29 00:02:13;;;;;;;29.15;11.12;;;;;;;-2.56;84.74;99260.75;1788018;79;21182;-73
2021/01/29 00:04:40;;;;;;;23.83;8.40;;;;;;;-2.57;84.72;99270.36;1787846;80;21572;-74
2021/01/29 00:07:08;;;;;;;25.70;7.95;;;;;;;-2.59;84.73;99277.48;1787704;80;21207;-73
2021/01/29 00:09:36;;;;;;;19.45;7.65;;;;;;;-2.59;84.73;99268.82;1787710;80;21119;-74
2021/01/29 00:12:03;;;;;;;38.42;13.45;;;;;;;-2.61;84.71;99266.34;1786890;80;21195;-73
2021/01/29 00:14:30;;;;;;;116.65;36.25;;;;;;;-2.62;84.69;99263.37;1787837;80;21143;-73
2021/01/29 00:16:56;;;;;;;43.95;12.70;;;;;;;-2.65;84.68;99268.82;1787916;80;21159;-73
2021/01/29 00:19:22;;;;;;;47.33;16.82;;;;;;;-2.67;84.69;99272.00;1787918;80;21194;-74
2021/01/29 00:21:49;;;;;;;34.20;10.82;;;;;;;-2.70;84.67;99246.14;1787363;80;21112;-73
2021/01/29 00:24:15;;;;;;;30.88;9.65;;;;;;;-2.73;84.65;99258.11;1787810;80;21144;-73
2021/01/29 00:26:43;;;;;;;31.10;11.05;;;;;;;-2.75;84.67;99245.67;1787729;80;21167;-74
2021/01/29 00:29:09;;;;;;;20.60;7.85;;;;;;;-2.78;84.66;99235.44;1787797;79;21138;-73
2021/01/29 00:31:35;;;;;;;19.50;7.33;;;;;;;-2.80;84.65;99246.47;1787960;80;21152;-73
2021/01/29 00:34:02;;;;;;;26.00;8.63;;;;;;;-2.82;84.66;99257.50;1787615;80;21142;-73
2021/01/29 00:36:28;;;;;;;16.87;7.10;;;;;;;-2.84;84.65;99263.76;1756924;80;21171;-73
2021/01/29 00:38:54;;;;;;;17.20;7.17;;;;;;;-2.86;84.64;99260.45;1756321;80;21559;-73
2021/01/29 00:41:23;;;;;;;23.80;8.33;;;;;;;-2.88;84.62;99272.28;1756595;81;21187;-73
2021/01/29 00:43:50;;;;;;;24.25;7.08;;;;;;;-2.90;84.63;99266.83;1756345;81;21405;-73
2021/01/29 00:46:18;;;;;;;12.18;6.33;;;;;;;-2.90;84.63;99268.13;1756355;81;21214;-73
2021/01/29 00:48:46;;;;;;;21.37;9.10;;;;;;;-2.92;84.64;99259.61;1755857;81;21556;-73
2021/01/29 00:51:13;;;;;;;22.80;8.18;;;;;;;-2.94;84.62;99254.95;1755889;81;21151;-73
2021/01/29 00:53:41;;;;;;;13.85;5.37;;;;;;;-2.96;84.63;99252.48;1755971;81;21607;-73
2021/01/29 00:56:07;;;;;;;16.25;6.25;;;;;;;-2.96;84.64;99254.25;1755857;81;21591;-73
2021/01/29 00:58:33;;;;;;;26.62;10.45;;;;;;;-2.98;84.61;99246.53;1756457;81;21166;-73
2021/01/29 01:01:00;;;;;;;21.02;7.37;;;;;;;-2.99;84.61;99247.47;1755916;81;21163;-73
2021/01/29 01:03:27;;;;;;;20.05;7.05;;;;;;;-2.99;84.63;99244.86;1755901;81;21595;-73
2021/01/29 01:05:54;;;;;;;14.23;6.47;;;;;;;-2.99;84.66;99250.07;1755952;81;21143;-73
2021/01/29 01:08:21;;;;;;;17.55;6.15;;;;;;;-3.01;84.63;99245.45;1755972;81;21609;-73
2021/01/29 01:10:47;;;;;;;14.70;5.30;;;;;;;-3.03;84.64;99252.57;1755999;81;21648;-73
2021/01/29 01:13:14;;;;;;;16.60;5.40;;;;;;;-3.04;84.64;99254.81;1755939;81;21613;-73
2021/01/29 01:15:40;;;;;;;19.25;7.37;;;;;;;-3.06;84.64;99249.69;1756069;81;21584;-73
2021/01/29 01:18:06;;;;;;;21.02;8.65;;;;;;;-3.07;84.64;99247.22;1755424;81;21135;-73
2021/01/29 01:20:33;;;;;;;17.55;10.15;;;;;;;-3.09;84.63;99241.27;1755896;81;21163;-73
2021/01/29 01:22:59;;;;;;;25.27;13.28;;;;;;;-3.11;84.65;99243.16;1755802;81;21762;-73
2021/01/29 01:25:25;;;;;;;19.10;10.00;;;;;;;-3.14;84.65;99249.45;1726984;81;21111;-73
2021/01/29 01:27:52;;;;;;;20.30;10.28;;;;;;;-3.13;84.65;99246.37;1755954;81;21135;-73
2021/01/29 01:30:22;;;;;;;18.62;10.23;;;;;;;-3.13;84.65;99245.07;1755830;80;21581;-73
2021/01/29 01:32:48;;;;;;;19.27;9.15;;;;;;;-3.15;84.64;99245.63;1756093;80;21263;-73
2021/01/29 01:35:16;;;;;;;17.82;7.58;;;;;;;-3.18;84.66;99248.47;1755552;81;21584;-73
2021/01/29 01:37:42;;;;;;;15.05;7.28;;;;;;;-3.19;84.66;99250.70;1759469;81;21162;-73
2021/01/29 01:40:09;;;;;;;18.48;7.65;;;;;;;-3.21;84.67;99247.39;1761342;80;21123;-73
2021/01/29 01:42:36;;;;;;;15.08;6.90;;;;;;;-3.22;84.67;99236.13;1761467;81;21127;-73
2021/01/29 01:45:22;;;;;;;15.93;7.70;;;;;;;-3.23;84.66;99230.55;1761568;81;22079;-73
2021/01/29 01:47:48;;;;;;;19.10;7.25;;;;;;;-3.24;84.66;99234.13;1693215;83;21639;-73
2021/01/29 01:50:37;;;;;;;24.02;7.37;;;;;;;-3.25;84.68;99235.52;1719534;81;21155;-73
2021/01/29 01:53:06;;;;;;;18.17;7.17;;;;;;;-3.25;84.68;99225.09;1734758;80;21583;-73
2021/01/29 01:55:37;;;;;;;18.03;8.47;;;;;;;-3.25;84.67;99225.09;1686612;81;21130;-73
2021/01/29 01:58:03;;;;;;;19.45;9.35;;;;;;;-3.26;84.67;99224.73;1761566;81;21210;-73
2021/01/29 02:00:30;;;;;;;20.15;11.33;;;;;;;-3.26;84.68;99229.94;1761445;81;21158;-72
2021/01/29 02:03:08;;;;;;;16.93;7.65;;;;;;;-3.29;84.66;99231.00;1761669;81;21564;-73
2021/01/29 02:05:37;;;;;;;15.20;8.43;;;;;;;-3.31;84.67;99231.60;1761371;80;21552;-73
2021/01/29 02:08:05;;;;;;;;;;;;;;;-3.32;84.67;99239.52;1764098;81;21198;-73
2021/01/29 02:10:32;;;;;;;15.53;6.33;;;;;;;-3.34;84.68;99236.20;1761635;81;21098;-73
2021/01/29 02:12:59;;;;;;;20.32;6.20;;;;;;;-3.37;84.67;99228.11;1761349;81;21592;-73
2021/01/29 02:15:33;;;;;;;14.53;6.42;;;;;;;-3.38;84.68;99234.76;1761578;81;21138;-73
2021/01/29 02:18:34;;;;;;;15.20;5.58;;;;;;;-3.40;84.69;99237.93;1760523;81;21158;-73
2021/01/29 02:21:39;;;;;;;16.70;6.75;;;;;;;-3.41;84.69;99236.29;1761632;81;21151;-73
2021/01/29 02:24:43;;;;;;;18.07;6.62;;;;;;;-3.43;84.71;99229.03;1761658;81;21595;-73
2021/01/29 02:27:21;;;;;;;22.20;10.20;;;;;;;-3.45;84.69;99240.05;1760041;81;21143;-73
2021/01/29 02:30:30;;;;;;;16.95;9.20;;;;;;;-3.42;84.70;99238.52;1761456;80;21206;-73
2021/01/29 02:33:28;;;;;;;19.30;10.88;;;;;;;-3.43;84.68;99233.78;1761533;81;21813;-73
2021/01/29 02:36:18;;;;;;;17.98;9.33;;;;;;;-3.45;84.70;99233.07;1760205;81;21544;-72
2021/01/29 02:39:22;;;;;;;15.13;8.55;;;;;;;-3.46;84.70;99242.28;1760900;81;21957;-73
2021/01/29 02:42:06;;;;;;;15.48;6.53;;;;;;;-3.46;84.70;99231.40;1761584;81;21607;-72
2021/01/29 02:44:46;;;;;;;14.18;5.25;;;;;;;-3.48;84.70;99228.55;1761152;80;21563;-73
2021/01/29 02:47:19;;;;;;;15.90;6.30;;;;;;;-3.48;84.71;99231.16;1760579;80;21210;-72
2021/01/29 02:50:09;;;;;;;10.45;5.20;;;;;;;-3.50;84.70;99229.95;1761337;81;21584;-72
2021/01/29 02:52:55;;;;;;;;;;;;;;;-3.50;84.71;99227.34;1764256;81;21159;-73
2021/01/29 02:55:38;;;;;;;19.37;6.20;;;;;;;-3.50;84.70;99226.05;1761503;81;20282;-72
2021/01/29 02:58:18;;;;;;;19.15;6.12;;;;;;;-3.49;84.71;99224.27;1761492;81;21155;-72
2021/01/29 03:00:53;;;;;;;;;;;;;;;-3.50;84.70;99221.30;1764002;81;21127;-72
2021/01/29 03:03:27;;;;;;;14.10;7.22;;;;;;;-3.52;84.70;99218.33;1761027;81;20273;-72
2021/01/29 03:06:01;;;;;;;10.93;5.45;;;;;;;-3.52;84.71;99214.41;1761328;81;21135;-72
2021/01/29 03:08:31;;;;;;;19.42;9.90;;;;;;;-3.50;84.72;99217.39;1761415;81;21209;-72
2021/01/29 03:11:30;;;;;;;20.17;10.60;;;;;;;-3.49;84.71;99212.08;1761203;81;21127;-72
2021/01/29 03:14:47;;;;;;;17.00;8.93;;;;;;;-3.47;84.71;99212.79;1722880;82;21194;-72
2021/01/29 03:17:19;;;;;;;15.63;8.55;;;;;;;-3.44;84.69;99211.73;1722973;82;21212;-72
2021/01/29 03:20:13;;;;;;;15.83;7.35;;;;;;;-3.42;84.71;99208.56;1751009;80;21205;-72
2021/01/29 03:23:02;;;;;;;15.45;5.70;;;;;;;-3.36;84.72;99208.94;1815459;77;28178;-72
2021/01/29 03:25:36;;;;;;;13.45;5.28;;;;;;;-3.41;84.72;99213.64;1787034;80;21025;-72
2021/01/29 03:28:07;;;;;;;21.15;7.20;;;;;;;-3.41;84.73;99216.74;1787611;80;21285;-72
2021/01/29 03:30:36;;;;;;;17.87;7.33;;;;;;;-3.41;84.71;99220.16;1787753;80;21024;-72
2021/01/29 03:33:02;;;;;;;15.20;6.50;;;;;;;-3.44;84.73;99210.42;1787672;80;21107;-71
2021/01/29 03:35:42;;;;;;;18.12;8.40;;;;;;;-3.45;84.72;99218.73;1757071;80;21108;-72
2021/01/29 03:38:32;;;;;;;17.77;8.20;;;;;;;-3.46;84.72;99213.63;1787992;79;20985;-72
2021/01/29 03:41:23;;;;;;;21.60;11.78;;;;;;;-3.49;84.72;99216.45;1787657;80;21841;-71
2021/01/29 03:44:24;;;;;;;25.82;13.35;;;;;;;-3.49;84.72;99221.20;1787498;80;21156;-71
2021/01/29 03:47:05;;;;;;;19.82;8.18;;;;;;;-3.50;84.75;99223.44;1787687;79;21140;-72
2021/01/29 03:49:55;;;;;;;17.57;7.03;;;;;;;-3.52;84.73;99220.92;1764215;80;21171;-72
2021/01/29 03:52:42;;;;;;;19.82;7.75;;;;;;;-3.50;84.75;99215.63;1787751;80;21636;-71
2021/01/29 03:55:42;;;;;;;21.75;8.55;;;;;;;-3.50;84.75;99218.23;1787706;80;21630;-71
2021/01/29 03:58:50;;;;;;;16.67;6.03;;;;;;;-3.52;84.73;99214.91;1787320;80;21107;-71
2021/01/29 04:01:31;;;;;;;17.27;6.95;;;;;;;-3.53;84.74;99209.33;1787435;79;21211;-71
2021/01/29 04:04:20;;;;;;;16.65;5.97;;;;;;;-3.54;84.74;99216.31;1787117;80;21166;-71
2021/01/29 04:06:54;;;;;;;13.48;6.40;;;;;;;-3.52;84.75;99215.37;1787558;80;21581;-72
2021/01/29 04:09:31;;;;;;;14.80;6.42;;;;;;;-3.55;84.75;99205.52;1787292;80;21939;-72
2021/01/29 04:12:00;;;;;;;17.17;8.50;;;;;;;-3.57;84.75;99198.30;1758083;80;21159;-72
2021/01/29 04:14:37;;;;;;;18.15;10.35;;;;;;;-3.58;84.75;99188.81;1757471;80;21139;-71
2021/01/29 04:17:15;;;;;;;22.90;11.20;;;;;;;-3.58;84.76;99190.58;1786615;80;21104;-71
2021/01/29 04:19:42;;;;;;;16.27;8.35;;;;;;;-3.61;84.77;99198.16;1787760;80;21147;-72
2021/01/29 04:22:24;;;;;;;17.95;6.83;;;;;;;-3.61;84.77;99198.16;1787604;79;21193;-71
2021/01/29 04:24:58;;;;;;;9.73;3.92;;;;;;;-3.59;84.77;99203.27;1787699;80;21198;-71
2021/01/29 04:27:27;;;;;;;14.30;4.45;;;;;;;-3.58;84.78;99199.23;1728749;82;21149;-71
2021/01/29 04:30:10;;;;;;;12.47;4.42;;;;;;;-3.57;84.80;99204.81;1732143;81;21608;-71
2021/01/29 04:32:39;;;;;;;12.55;4.80;;;;;;;-3.55;84.79;99204.69;1731801;82;21172;-71
2021/01/29 04:35:07;;;;;;;6.70;3.52;;;;;;;-3.49;84.81;99211.25;1731717;82;22058;-71
2021/01/29 04:37:38;;;;;;;13.88;6.78;;;;;;;-3.45;84.81;99207.48;1731460;82;21153;-71
2021/01/29 04:40:13;;;;;;;21.75;9.63;;;;;;;-3.40;84.81;99205.35;1731737;81;21148;-71
2021/01/29 04:43:12;;;;;;;28.27;10.32;;;;;;;-3.37;84.82;99207.73;1729220;82;21668;-72
2021/01/29 04:45:56;;;;;;;11.57;4.50;;;;;;;-3.32;84.82;99206.94;1731854;82;21180;-71
2021/01/29 04:49:14;;;;;;;14.13;5.45;;;;;;;-3.27;84.82;99199.63;1731640;82;22338;-71
2021/01/29 04:52:15;;;;;;;12.58;4.47;;;;;;;-3.23;84.84;99191.92;1731059;81;21227;-71
2021/01/29 04:55:13;;;;;;;23.77;5.22;;;;;;;-3.20;84.84;99203.45;1731568;81;21195;-71
2021/01/29 04:58:02;;;;;;;14.07;5.60;;;;;;;-3.16;84.85;99200.95;1730377;82;21132;-71
2021/01/29 05:00:58;;;;;;;;;;;;;;;-3.13;84.85;99203.36;1734208;82;21109;-71
2021/01/29 05:03:33;;;;;;;;;;;;;;;-3.12;84.85;99208.91;1734206;82;21297;-71
2021/01/29 05:06:35;;;;;;;;;;;;;;;-3.12;84.85;99211.52;1733832;81;20321;-72
2021/01/29 05:09:24;;;;;;;;;;;;;;;-3.11;84.86;99205.36;1734254;82;20284;-72
2021/01/29 05:12:12;;;;;;;;;;;;;;;-3.08;84.86;99196.01;1734027;81;20540;-72
2021/01/29 05:15:06;;;;;;;;;;;;;;;-3.05;84.87;99190.56;1734153;81;20292;-72
2021/01/29 05:18:06;;;;;;;;;;;;;;;-3.02;84.87;99182.03;1729146;83;21209;-72
2021/01/29 05:20:36;;;;;;;;;;;;;;;-3.01;84.89;99180.27;1728843;83;20336;-72
2021/01/29 05:23:21;;;;;;;;;;;;;;;-3.03;84.87;99183.47;1728312;82;20293;-72
2021/01/29 05:25:57;;;;;;;;;;;;;;;-3.04;84.86;99168.77;1731040;81;20337;-72
2021/01/29 05:28:37;;;;;;;;;;;;;;;-3.02;84.84;99174.22;1731302;83;20588;-72
2021/01/29 05:31:22;;;;;;;;;;;;;;;-3.01;84.88;99172.45;1724405;82;21211;-72
2021/01/29 05:33:57;;;;;;;;;;;;;;;-2.99;84.86;99167.93;1721684;82;20245;-73
2021/01/29 05:36:27;;;;;;;;;;;;;;;-3.00;84.85;99166.30;1731269;83;20580;-72
2021/01/29 05:39:21;;;;;;;;;;;;;;;-2.98;84.86;99160.47;1731307;83;20281;-72
2021/01/29 05:41:54;;;;;;;;;;;;;;;-3.00;84.85;99153.25;1731313;82;20528;-72
2021/01/29 05:44:40;;;;;;;;;;;;;;;-3.03;84.83;99163.42;1730912;82;21215;-72
2021/01/29 05:47:44;;;;;;;;;;;;;;;-3.03;84.85;99151.69;1731289;82;20564;-72
2021/01/29 05:50:37;;;;;;;;;;;;;;;-3.01;84.84;99152.89;1731056;82;20264;-72
2021/01/29 05:53:06;;;;;;;;;;;;;;;-3.02;84.84;99148.61;1725616;82;20225;-72
2021/01/29 05:55:59;;;;;;;;;;;;;;;-3.03;84.84;99147.77;1731313;82;20529;-72
2021/01/29 05:58:40;;;;;;;;;;;;;;;-3.04;84.82;99151.81;1731342;83;21464;-72
2021/01/29 06:01:10;;;;;;;;;;;;;;;-3.00;84.82;99160.23;1714610;83;20288;-72
2021/01/29 06:03:45;;;;;;;;;;;;;;;-2.99;84.83;99160.11;1730694;82;20291;-72
2021/01/29 06:06:30;;;;;;;;;;;;;;;-2.99;84.83;99161.41;1731285;81;20276;-72
2021/01/29 06:09:18;;;;;;;;;;;;;;;-3.00;84.83;99157.16;1731444;83;20269;-72
2021/01/29 06:12:06;;;;;;;;;;;;;;;-2.98;84.84;99152.66;1730471;81;21291;-72
2021/01/29 06:14:40;;;;;;;;;;;;;;;-2.97;84.83;99150.88;1731309;83;20229;-72
2021/01/29 06:17:39;;;;;;;;;;;;;;;-2.95;84.82;99144.59;1731237;83;20272;-72
2021/01/29 06:20:43;;;;;;;;;;;;;;;-2.92;84.83;99144.36;1730733;82;20345;-72
2021/01/29 06:23:34;;;;;;;;;;;;;;;-2.96;84.79;99135.13;1755187;81;20268;-72
2021/01/29 06:26:13;;;;;;;;;;;;;;;-3.00;84.79;99127.64;1763641;81;22080;-72
2021/01/29 06:29:00;;;;;;;;;;;;;;;-3.03;84.77;99129.52;1763655;81;20293;-72
2021/01/29 06:31:55;;;;;;;;;;;;;;;-3.02;84.78;99123.37;1763762;81;20328;-70
2021/01/29 06:34:25;;;;;;;;;;;;;;;-3.00;84.77;99115.45;1757102;81;20553;-71
2021/01/29 06:37:13;;;;;;;;;;;;;;;-3.02;84.75;99114.71;1748867;81;20282;-72
2021/01/29 06:40:06;;;;;;;;;;;;;;;-3.06;84.77;99104.16;1735061;81;21416;-72
2021/01/29 06:42:55;;;;;;;;;;;;;;;-3.10;84.74;99101.45;1747250;81;20288;-72
2021/01/29 06:45:45;;;;;;;;;;;;;;;-3.13;84.74;99092.06;1733514;82;20281;-72
2021/01/29 06:48:34;;;;;;;;;;;;;;;-3.17;84.70;99082.00;1733357;82;20277;-72
2021/01/29 06:51:20;;;;;;;;;;;;;;;-3.20;84.71;99079.13;1732725;82;20277;-72
2021/01/29 06:54:08;;;;;;;;;;;;;;;-3.24;84.70;99071.21;1733455;82;21285;-71
2021/01/29 06:56:49;;;;;;;;;;;;;;;-3.26;84.69;99065.73;1733241;82;20289;-71
2021/01/29 06:59:35;;;;;;;;;;;;;;;-3.28;84.68;99071.55;1736826;81;20289;-71
2021/01/29 07:02:21;;;;;;;;;;;;;;;-3.30;84.67;99074.73;1748988;81;20335;-72
2021/01/29 07:05:00;;;;;;;;;;;;;;;-3.31;84.68;99077.00;1747741;81;20275;-72
2021/01/29 07:07:30;;;;;;;;;;;;;;;-3.36;84.67;99068.68;1738523;81;22105;-71
2021/01/29 07:10:12;;;;;;;;;;;;;;;-3.37;84.63;99061.80;1743938;81;20293;-71
2021/01/29 07:12:56;;;;;;;;;;;;;;;-3.36;84.62;99054.34;1715408;80;20313;-71
2021/01/29 07:15:43;;;;;;;;;;;;;;;-3.34;84.59;99047.27;1755897;80;20986;-71
2021/01/29 07:18:18;;;;;;;;;;;;;;;-3.24;84.58;99049.52;1758631;80;20571;-71
2021/01/29 07:20:53;;;;;;;;;;;;;;;-3.03;84.51;99048.69;1759951;80;21098;-71
2021/01/29 07:23:43;;;;;;;;;;;;;;;-2.52;84.30;99037.30;1739846;80;20325;-71
2021/01/29 07:26:13;;;;;;;;;;;;;;;-2.27;84.09;99037.95;1714052;83;20567;-71
2021/01/29 07:28:52;;;;;;;;;;;;;;;-2.34;84.08;99032.39;1721281;82;20313;-70
2021/01/29 07:31:41;;;;;;;;;;;;;;;-2.53;84.21;99031.72;1719632;82;20599;-71
2021/01/29 07:34:23;;;;;;;;;;;;;;;-2.66;84.31;99031.03;1725078;82;21257;-71
2021/01/29 07:37:16;;;;;;;;;;;;;;;-2.70;84.38;99031.38;1727383;82;20602;-71
2021/01/29 07:39:49;;;;;;;;;;;;;;;-2.65;84.37;99035.30;1720384;82;20578;-71
2021/01/29 07:42:35;;;;;;;;;;;;;;;-2.56;84.36;99033.73;1698307;82;20304;-71
2021/01/29 07:47:50;;;;;;;22.55;10.50;;;;;;;-2.61;84.39;99028.91;1779077;79;28927;-71
2021/01/29 07:50:30;;;;;;;28.10;13.70;;;;;;;-2.66;84.38;99027.12;1759922;80;21259;-70
2021/01/29 07:53:21;;;;;;;14.13;6.78;;;;;;;-2.68;84.46;99039.47;1757713;80;26338;-71
2021/01/29 07:56:14;;;;;;;10.90;5.50;;;;;;;-2.61;84.45;99036.73;1755340;80;21161;-71
2021/01/29 07:59:16;;;;;;;17.50;5.70;;;;;;;-2.57;84.44;99039.42;1756523;79;21191;-71
2021/01/29 08:01:47;;;;;;;16.60;7.10;;;;;;;-2.55;84.42;99033.63;1718727;80;21652;-71
2021/01/29 08:04:48;;;;;;;12.55;6.03;;;;;;;-2.52;84.46;99033.38;1755995;80;21165;-72
2021/01/29 08:07:32;;;;;;;8.50;5.42;;;;;;;-2.50;84.47;99036.35;1756635;80;21581;-71
2021/01/29 08:10:02;;;;;;;11.10;5.65;;;;;;;-2.55;84.44;99038.84;1753473;80;21162;-72
2021/01/29 08:12:28;;;;;;;16.17;7.78;;;;;;;-2.61;84.41;99035.42;1757269;79;21264;-69
2021/01/29 08:15:29;;;;;;;13.48;7.10;;;;;;;-2.58;84.41;99033.04;1755795;80;21780;-69
2021/01/29 08:18:35;;;;;;;18.07;9.35;;;;;;;-2.50;84.39;99030.66;1755514;80;21219;-69
2021/01/29 08:21:29;;;;;;;14.28;8.23;;;;;;;-2.50;84.36;99027.22;1753886;80;21215;-70
2021/01/29 08:24:04;;;;;;;20.15;8.13;;;;;;;-2.46;84.32;99012.98;1754876;80;21179;-70
2021/01/29 08:26:51;;;;;;;15.55;5.60;;;;;;;-2.39;84.33;99005.02;1760347;79;21140;-70
2021/01/29 08:29:58;;;;;;;13.28;7.95;;;;;;;-2.27;84.31;99001.41;1753310;80;21755;-70
2021/01/29 08:32:51;;;;;;;14.65;5.58;;;;;;;-2.22;84.30;99000.57;1755247;80;21156;-71
2021/01/29 08:35:56;;;;;;;27.55;11.25;;;;;;;-2.20;84.32;98999.95;1758965;80;21241;-71
2021/01/29 08:38:43;;;;;;;11.10;5.87;;;;;;;-2.18;84.29;98999.38;1757514;80;21221;-71
2021/01/29 08:41:37;;;;;;;10.13;5.53;;;;;;;-2.19;84.27;98997.70;1709512;80;21195;-70
2021/01/29 08:44:18;;;;;;;8.58;5.20;;;;;;;-2.22;84.25;98997.48;1755416;80;21170;-70
2021/01/29 08:47:18;;;;;;;13.40;7.17;;;;;;;-2.25;84.21;99003.44;1760010;80;21232;-70
2021/01/29 08:50:14;;;;;;;20.88;10.65;;;;;;;-2.20;84.19;99003.88;1754730;80;21279;-70
2021/01/29 08:53:06;;;;;;;9.73;5.28;;;;;;;-2.05;84.14;99005.25;1765487;80;21164;-70
2021/01/29 08:56:09;;;;;;;24.15;9.75;;;;;;;-1.99;84.10;98991.69;1762426;80;21215;-70
2021/01/29 08:58:47;;;;;;;16.52;8.55;;;;;;;-1.91;84.08;98994.98;1766311;80;21112;-70
2021/01/29 09:01:43;;;;;;;15.45;10.08;;;;;;;-1.87;84.04;98988.08;1766812;80;21155;-71
2021/01/29 09:04:52;;;;;;;17.57;10.30;;;;;;;-1.80;84.05;98989.23;1767154;79;21250;-71
2021/01/29 09:07:30;;;;;;;11.78;7.80;;;;;;;-1.75;84.01;98990.97;1765733;79;21921;-71
2021/01/29 09:10:23;;;;;;;11.53;6.62;;;;;;;-1.66;84.03;98989.39;1805307;77;22341;-71
2021/01/29 09:12:58;;;;;;;8.83;5.00;;;;;;;-1.71;84.02;98984.53;1780470;80;21240;-71
2021/01/29 09:15:50;;;;;;;8.93;4.90;;;;;;;-1.65;83.94;98982.71;1778651;80;21219;-71
2021/01/29 09:18:46;;;;;;;10.08;6.75;;;;;;;-1.60;83.91;98979.25;1740551;80;21658;-72
2021/01/29 09:21:19;;;;;;;11.93;6.03;;;;;;;-1.44;83.87;98971.44;1762561;80;21196;-72
2021/01/29 09:24:23;;;;;;;16.87;8.55;;;;;;;-1.35;83.88;98973.26;1768872;80;21699;-72
2021/01/29 09:27:15;;;;;;;12.68;6.87;;;;;;;-1.32;83.88;98972.99;1777447;80;21197;-72
2021/01/29 09:29:51;;;;;;;31.10;12.37;;;;;;;-1.29;83.83;98964.41;1772987;80;22106;-72
2021/01/29 09:32:23;;;;;;;12.05;5.25;;;;;;;-1.24;83.74;98954.88;1775695;80;21713;-72
2021/01/29 09:34:50;;;;;;;8.33;4.72;;;;;;;-1.32;83.67;98950.77;1769395;80;21245;-72
2021/01/29 09:37:23;;;;;;;14.80;5.12;;;;;;;-1.38;83.65;98949.99;1753965;80;21217;-73
2021/01/29 09:39:59;;;;;;;24.02;8.53;;;;;;;-1.46;83.60;98955.03;1744723;81;21460;-73
2021/01/29 09:42:51;;;;;;;106.43;25.88;;;;;;;-1.45;83.59;98964.06;1737926;81;21207;-70
2021/01/29 09:45:22;;;;;;;26.17;8.63;;;;;;;-1.34;83.60;98964.47;1714031;81;21219;-68
2021/01/29 09:47:49;;;;;;;14.70;7.00;;;;;;;-1.20;83.55;98961.50;1725669;81;21335;-67
2021/01/29 09:50:22;;;;;;;19.27;9.13;;;;;;;-1.10;83.47;98954.52;1727409;81;21984;-72
2021/01/29 09:53:09;;;;;;;10.00;5.60;;;;;;;-1.01;83.43;98948.48;1755273;81;21142;-76
2021/01/29 09:56:05;;;;;;;13.68;7.58;;;;;;;-0.96;83.41;98946.31;1738744;81;22029;-72
2021/01/29 09:58:57;;;;;;;7.72;4.97;;;;;;;-0.90;83.40;98948.39;1742810;81;21170;-72
2021/01/29 10:01:23;;;;;;;23.73;12.33;;;;;;;-0.87;83.33;98938.95;1740197;81;21175;-72
2021/01/29 10:04:07;;;;;;;9.00;4.92;;;;;;;-0.83;83.29;98927.74;1742628;81;21230;-72
2021/01/29 10:06:54;;;;;;;11.55;5.17;;;;;;;-0.79;83.18;98911.65;1715575;83;21607;-69
2021/01/29 10:09:28;;;;;;;15.40;7.28;;;;;;;-0.79;83.14;98915.57;1655911;84;21257;-70
2021/01/29 10:12:14;;;;;;;23.42;10.68;;;;;;;-0.83;83.14;98912.05;1678384;84;21200;-69
2021/01/29 10:14:57;;;;;;;17.92;8.50;;;;;;;-0.77;83.09;98911.02;1717250;83;21247;-70
2021/01/29 10:17:29;;;;;;;14.90;6.37;;;;;;;-0.72;83.06;98906.22;1694047;84;21212;-70
2021/01/29 10:20:06;;;;;;;14.03;5.78;;;;;;;-0.61;83.00;98908.72;1664758;84;21176;-70
2021/01/29 10:22:56;;;;;;;9.25;3.80;;;;;;;-0.71;82.93;98900.51;1686116;84;21211;-70
2021/01/29 10:25:27;;;;;;;10.88;4.90;;;;;;;-0.81;82.89;98897.85;1660511;86;21208;-70
2021/01/29 10:28:04;;;;;;;15.45;6.90;;;;;;;-0.74;82.81;98890.31;1692639;84;21211;-69
2021/01/29 10:30:59;;;;;;;11.90;5.40;;;;;;;-0.71;82.78;98888.25;1682771;83;21241;-69
2021/01/29 10:33:36;;;;;;;12.70;6.97;;;;;;;-0.63;82.79;98880.52;1680862;84;21472;-70
2021/01/29 10:36:11;;;;;;;153.82;98.10;;;;;;;-0.69;82.72;98875.84;1709142;83;22542;-70
2021/01/29 10:38:54;;;;;;;24.47;15.03;;;;;;;-0.75;82.64;98877.70;1688691;84;21195;-70
2021/01/29 10:41:42;;;;;;;12.58;5.85;;;;;;;-0.76;82.59;98880.45;1688921;84;21180;-70
2021/01/29 10:44:16;;;;;;;8.73;4.37;;;;;;;-0.77;82.55;98879.61;1699297;83;21213;-70
2021/01/29 10:47:12;;;;;;;10.95;4.55;;;;;;;-0.82;82.47;98870.05;1710473;83;21623;-70
2021/01/29 10:50:18;;;;;;;9.03;3.70;;;;;;;-0.75;82.46;98862.00;1691659;84;21262;-70
2021/01/29 10:53:13;;;;;;;7.22;4.12;;;;;;;-0.73;82.39;98862.68;1672718;84;21236;-70
2021/01/29 10:56:03;;;;;;;9.63;4.55;;;;;;;-0.62;82.34;98870.89;1691558;84;21214;-70
2021/01/29 10:58:58;;;;;;;8.30;4.37;;;;;;;-0.63;82.25;98872.67;1700438;83;21168;-71
2021/01/29 11:01:35;;;;;;;9.00;5.85;;;;;;;-0.66;82.17;98854.62;1719811;82;21577;-70
2021/01/29 11:04:32;;;;;;;6.40;4.10;;;;;;;-0.62;82.10;98865.17;1667499;84;21214;-70
2021/01/29 11:07:07;;;;;;;10.93;4.50;;;;;;;-0.63;82.05;98862.20;1691662;83;21268;-70
2021/01/29 11:09:40;;;;;;;8.88;5.05;;;;;;;-0.62;81.98;98863.03;1700911;83;21636;-70
2021/01/29 11:12:28;;;;;;;7.15;4.55;;;;;;;-0.63;81.91;98859.59;1693244;83;21933;-70
2021/01/29 11:15:10;;;;;;;12.33;5.60;;;;;;;-0.69;81.86;98850.98;1697885;83;21680;-67
2021/01/29 11:17:42;;;;;;;11.03;5.62;;;;;;;-0.69;81.78;98849.67;1713701;83;21258;-67
2021/01/29 11:20:22;;;;;;;12.18;5.75;;;;;;;-0.69;81.72;98848.36;1723814;83;21187;-71
2021/01/29 11:23:10;;;;;;;11.38;6.30;;;;;;;-0.62;81.63;98849.95;1725387;82;21172;-70
2021/01/29 11:25:53;;;;;;;28.00;12.25;;;;;;;-0.58;81.57;98854.78;1711594;81;21231;-70
2021/01/29 11:28:40;;;;;;;48.65;18.50;;;;;;;-0.56;81.53;98848.08;1711656;83;21712;-70
2021/01/29 11:31:37;;;;;;;12.70;6.90;;;;;;;-0.61;81.45;98839.35;1713602;82;21281;-72
2021/01/29 11:34:04;;;;;;;14.83;5.45;;;;;;;-0.71;81.39;98832.47;1690945;84;21165;-70
2021/01/29 11:36:40;;;;;;;11.75;6.22;;;;;;;-0.72;81.35;98839.48;1699401;84;21189;-70
2021/01/29 11:39:21;;;;;;;11.38;5.42;;;;;;;-0.73;81.28;98835.20;1699060;84;21240;-70
2021/01/29 11:42:08;;;;;;;11.85;9.10;;;;;;;-0.67;81.26;98824.17;1698920;84;21605;-70
2021/01/29 11:45:03;;;;;;;14.65;6.78;;;;;;;-0.55;81.23;98832.25;1698822;84;22182;-70
2021/01/29 11:47:43;;;;;;;39.08;17.07;;;;;;;-0.50;81.15;98830.53;1698584;83;21657;-70
2021/01/29 11:50:15;;;;;;;37.90;18.45;;;;;;;-0.52;81.12;98824.59;1685459;84;21205;-70
2021/01/29 11:52:48;;;;;;;49.23;23.10;;;;;;;-0.43;81.08;98815.92;1698982;84;21209;-70
2021/01/29 11:55:20;;;;;;;43.17;17.27;;;;;;;-0.35;81.03;98818.64;1697864;84;21141;-70
2021/01/29 11:58:08;;;;;;;19.37;10.43;;;;;;;-0.31;80.95;98804.79;1698936;84;22787;-70
2021/01/29 12:01:18;;;;;;;30.27;14.03;;;;;;;-0.36;80.89;98800.47;1698883;84;21161;-71
2021/01/29 12:03:54;;;;;;;15.23;8.90;;;;;;;-0.40;80.80;98797.31;1699114;84;21594;-71
2021/01/29 12:06:40;;;;;;;29.72;14.28;;;;;;;-0.33;80.74;98794.95;1674367;84;21193;-71
2021/01/29 12:09:27;;;;;;;73.37;47.35;;;;;;;-0.22;80.68;98784.32;1672750;84;21193;-72
2021/01/29 12:12:09;;;;;;;46.05;29.35;;;;;;;-0.20;80.63;98790.23;1664395;84;21934;-71
2021/01/29 12:14:56;;;;;;;23.87;9.75;;;;;;;-0.20;80.53;98773.20;1681362;84;22356;-72
2021/01/29 12:17:25;;;;;;;124.85;73.22;;;;;;;-0.22;80.44;98773.84;1681472;84;21149;-72
2021/01/29 12:19:51;;;;;;;19.85;10.98;;;;;;;-0.24;80.42;98771.34;1681717;84;21638;-71
2021/01/29 12:22:41;;;;;;;106.07;54.42;;;;;;;-0.24;80.35;98762.66;1633948;85;21158;-72
2021/01/29 12:25:56;;;;;;;206.43;84.00;;;;;;;-0.26;80.27;98759.37;1698888;84;22156;-72
2021/01/29 12:28:53;;;;;;;33.60;16.90;;;;;;;-0.28;80.19;98747.72;1698586;84;21173;-71
2021/01/29 12:31:56;;;;;;;23.20;10.43;;;;;;;-0.26;80.06;98751.52;1669826;85;21182;-71
2021/01/29 12:34:36;;;;;;;20.30;9.53;;;;;;;-0.27;79.93;98747.23;1674637;85;21178;-72
2021/01/29 12:37:12;;;;;;;21.73;9.85;;;;;;;-0.29;79.80;98746.56;1674781;85;21198;-71
2021/01/29 12:40:00;;;;;;;27.90;11.38;;;;;;;-0.30;79.72;98747.05;1674712;85;21210;-71
2021/01/29 12:42:58;;;;;;;27.67;13.35;;;;;;;-0.29;79.64;98741.33;1674594;85;21185;-72
2021/01/29 12:45:33;;;;;;;19.75;9.65;;;;;;;-0.29;79.55;98742.64;1674387;85;21268;-71
2021/01/29 12:48:17;;;;;;;22.85;11.73;;;;;;;-0.29;79.45;98738.71;1674828;85;21623;-72
2021/01/29 12:51:06;;;;;;;22.70;10.98;;;;;;;-0.28;79.36;98732.52;1674724;85;21158;-72
2021/01/29 12:53:48;;;;;;;20.23;10.30;;;;;;;-0.30;79.29;98726.58;1674798;85;21282;-71